sensor_id;sensor_type;location;lat;lon;timestamp;temperature;humidity
30467;DHT22;17258;52.560;13.046;2022-11-02T00:03:05;13.10;68.00
30467;DHT22;17258;52.560;13.046;2022-11-02T00:13:06;13.00;67.90
30467;DHT22;17258;52.560;13.046;2022-11-02T00:23:07;12.90;68.00
30467;DHT22;17258;52.560;13.046;2022-11-02T00:33:10;12.90;68.00
30467;DHT22;17258;52.560;13.046;2022-11-02T00:43:11;12.80;68.00
30467;DHT22;17258;52.560;13.046;2022-11-02T00:53:12;12.70;68.00
30467;DHT22;17258;52.560;13.046;2022-11-02T01:03:12;12.60;68.00
30467;DHT22;17258;52.560;13.046;2022-11-02T01:13:13;12.50;68.00
30467;DHT22;17258;52.560;13.046;2022-11-02T01:23:13;12.50;68.00
30467;DHT22;17258;52.560;13.046;2022-11-02T01:33:14;12.30;68.00
30467;DHT22;17258;52.560;13.046;2022-11-02T01:43:19;12.30;68.10
30467;DHT22;17258;52.560;13.046;2022-11-02T01:53:22;12.20;68.20
30467;DHT22;17258;52.560;13.046;2022-11-02T02:03:23;12.20;68.20
30467;DHT22;17258;52.560;13.046;2022-11-02T02:13:25;12.10;68.10
30467;DHT22;17258;52.560;13.046;2022-11-02T02:24:05;12.00;68.10
30467;DHT22;17258;52.560;13.046;2022-11-02T02:45:05;11.90;68.10
30467;DHT22;17258;52.560;13.046;2022-11-02T02:55:15;11.80;68.20
30467;DHT22;17258;52.560;13.046;2022-11-02T03:05:32;11.80;68.20
30467;DHT22;17258;52.560;13.046;2022-11-02T03:15:39;11.70;68.10
30467;DHT22;17258;52.560;13.046;2022-11-02T03:26:01;11.70;68.20
30467;DHT22;17258;52.560;13.046;2022-11-02T03:36:16;11.60;68.20
30467;DHT22;17258;52.560;13.046;2022-11-02T03:46:19;11.50;68.40
30467;DHT22;17258;52.560;13.046;2022-11-02T03:56:35;11.50;68.20
30467;DHT22;17258;52.560;13.046;2022-11-02T04:06:40;11.40;68.50
30467;DHT22;17258;52.560;13.046;2022-11-02T04:16:41;11.40;68.50
30467;DHT22;17258;52.560;13.046;2022-11-02T04:26:42;11.40;68.70
30467;DHT22;17258;52.560;13.046;2022-11-02T04:36:43;11.40;68.80
30467;DHT22;17258;52.560;13.046;2022-11-02T04:46:44;11.50;68.80
30467;DHT22;17258;52.560;13.046;2022-11-02T04:56:44;11.50;68.80
30467;DHT22;17258;52.560;13.046;2022-11-02T05:06:45;11.60;68.80
30467;DHT22;17258;52.560;13.046;2022-11-02T05:16:46;11.60;68.70
30467;DHT22;17258;52.560;13.046;2022-11-02T05:26:47;11.60;68.70
30467;DHT22;17258;52.560;13.046;2022-11-02T05:36:48;11.60;68.70
30467;DHT22;17258;52.560;13.046;2022-11-02T05:46:49;11.60;69.00
30467;DHT22;17258;52.560;13.046;2022-11-02T05:56:49;11.60;69.20
30467;DHT22;17258;52.560;13.046;2022-11-02T06:06:50;11.70;69.30
30467;DHT22;17258;52.560;13.046;2022-11-02T06:16:51;11.80;69.30
30467;DHT22;17258;52.560;13.046;2022-11-02T06:26:51;11.90;69.20
30467;DHT22;17258;52.560;13.046;2022-11-02T06:36:52;11.90;69.10
30467;DHT22;17258;52.560;13.046;2022-11-02T06:46:53;12.00;69.20
30467;DHT22;17258;52.560;13.046;2022-11-02T06:56:53;12.00;69.20
30467;DHT22;17258;52.560;13.046;2022-11-02T07:06:54;12.00;69.40
30467;DHT22;17258;52.560;13.046;2022-11-02T07:16:55;12.10;69.70
30467;DHT22;17258;52.560;13.046;2022-11-02T07:26:56;12.30;70.10
30467;DHT22;17258;52.560;13.046;2022-11-02T07:36:56;12.60;70.70
30467;DHT22;17258;52.560;13.046;2022-11-02T07:46:57;12.80;70.90
30467;DHT22;17258;52.560;13.046;2022-11-02T07:56:57;13.20;71.00
30467;DHT22;17258;52.560;13.046;2022-11-02T08:06:58;13.50;70.90
30467;DHT22;17258;52.560;13.046;2022-11-02T08:16:59;13.80;70.90
30467;DHT22;17258;52.560;13.046;2022-11-02T08:27:00;14.10;70.90
30467;DHT22;17258;52.560;13.046;2022-11-02T08:37:00;14.40;70.70
30467;DHT22;17258;52.560;13.046;2022-11-02T08:47:01;14.60;70.50
30467;DHT22;17258;52.560;13.046;2022-11-02T08:57:02;14.80;70.60
30467;DHT22;17258;52.560;13.046;2022-11-02T09:07:02;15.00;70.70
30467;DHT22;17258;52.560;13.046;2022-11-02T09:17:03;15.20;71.00
30467;DHT22;17258;52.560;13.046;2022-11-02T09:27:03;15.50;71.20
30467;DHT22;17258;52.560;13.046;2022-11-02T09:37:04;15.70;71.20
30467;DHT22;17258;52.560;13.046;2022-11-02T09:47:08;16.00;71.00
30467;DHT22;17258;52.560;13.046;2022-11-02T09:57:24;16.40;70.50
30467;DHT22;17258;52.560;13.046;2022-11-02T10:18:07;16.90;69.30
30467;DHT22;17258;52.560;13.046;2022-11-02T10:28:26;17.20;69.70
30467;DHT22;17258;52.560;13.046;2022-11-02T10:49:23;17.60;68.20
30467;DHT22;17258;52.560;13.046;2022-11-02T10:59:43;17.90;67.00
30467;DHT22;17258;52.560;13.046;2022-11-02T11:19:52;18.40;67.20
30467;DHT22;17258;52.560;13.046;2022-11-02T11:29:57;18.50;65.70
30467;DHT22;17258;52.560;13.046;2022-11-02T11:40:11;18.60;66.00
30467;DHT22;17258;52.560;13.046;2022-11-02T11:50:18;18.70;65.10
30467;DHT22;17258;52.560;13.046;2022-11-02T12:00:27;18.80;65.30
30467;DHT22;17258;52.560;13.046;2022-11-02T12:10:41;18.90;64.70
30467;DHT22;17258;52.560;13.046;2022-11-02T12:32:01;19.00;61.70
30467;DHT22;17258;52.560;13.046;2022-11-02T12:42:31;19.10;62.60
30467;DHT22;17258;52.560;13.046;2022-11-02T12:52:55;19.20;62.30
30467;DHT22;17258;52.560;13.046;2022-11-02T13:03:27;19.30;60.60
30467;DHT22;17258;52.560;13.046;2022-11-02T13:13:44;19.40;59.80
30467;DHT22;17258;52.560;13.046;2022-11-02T13:23:49;19.40;61.30
30467;DHT22;17258;52.560;13.046;2022-11-02T13:33:53;19.40;61.20
30467;DHT22;17258;52.560;13.046;2022-11-02T13:54:25;19.20;61.10
30467;DHT22;17258;52.560;13.046;2022-11-02T14:04:36;19.10;61.20
30467;DHT22;17258;52.560;13.046;2022-11-02T14:14:38;19.00;60.60
30467;DHT22;17258;52.560;13.046;2022-11-02T14:55:39;18.50;59.70
30467;DHT22;17258;52.560;13.046;2022-11-02T15:05:39;18.40;60.40
30467;DHT22;17258;52.560;13.046;2022-11-02T15:15:41;18.40;59.70
30467;DHT22;17258;52.560;13.046;2022-11-02T15:25:48;18.30;59.70
30467;DHT22;17258;52.560;13.046;2022-11-02T15:35:52;18.20;59.20
30467;DHT22;17258;52.560;13.046;2022-11-02T15:56:39;18.00;59.10
30467;DHT22;17258;52.560;13.046;2022-11-02T16:07:18;17.80;59.00
30467;DHT22;17258;52.560;13.046;2022-11-02T16:17:29;17.60;59.80
30467;DHT22;17258;52.560;13.046;2022-11-02T16:27:30;17.40;59.80
30467;DHT22;17258;52.560;13.046;2022-11-02T16:37:38;17.30;59.80
30467;DHT22;17258;52.560;13.046;2022-11-02T16:47:40;17.00;59.80
30467;DHT22;17258;52.560;13.046;2022-11-02T16:57:44;16.80;59.80
30467;DHT22;17258;52.560;13.046;2022-11-02T17:07:58;16.60;59.80
30467;DHT22;17258;52.560;13.046;2022-11-02T17:18:27;16.40;59.70
30467;DHT22;17258;52.560;13.046;2022-11-02T17:28:41;16.20;59.70
30467;DHT22;17258;52.560;13.046;2022-11-02T17:38:44;16.00;59.90
30467;DHT22;17258;52.560;13.046;2022-11-02T17:48:44;15.80;60.20
30467;DHT22;17258;52.560;13.046;2022-11-02T17:58:45;15.70;60.40
30467;DHT22;17258;52.560;13.046;2022-11-02T18:08:46;15.50;60.40
30467;DHT22;17258;52.560;13.046;2022-11-02T18:19:05;15.30;60.40
30467;DHT22;17258;52.560;13.046;2022-11-02T18:29:05;15.10;60.50
30467;DHT22;17258;52.560;13.046;2022-11-02T18:39:06;14.90;60.50
30467;DHT22;17258;52.560;13.046;2022-11-02T18:49:07;14.70;60.70
30467;DHT22;17258;52.560;13.046;2022-11-02T18:59:07;14.50;60.80
30467;DHT22;17258;52.560;13.046;2022-11-02T19:09:10;14.30;60.90
30467;DHT22;17258;52.560;13.046;2022-11-02T19:19:17;14.00;60.90
30467;DHT22;17258;52.560;13.046;2022-11-02T19:29:18;13.90;61.00
30467;DHT22;17258;52.560;13.046;2022-11-02T19:39:18;13.60;61.00
30467;DHT22;17258;52.560;13.046;2022-11-02T19:49:19;13.40;61.10
30467;DHT22;17258;52.560;13.046;2022-11-02T19:59:20;13.20;61.20
30467;DHT22;17258;52.560;13.046;2022-11-02T20:09:21;13.00;61.30
30467;DHT22;17258;52.560;13.046;2022-11-02T20:19:22;12.80;61.40
30467;DHT22;17258;52.560;13.046;2022-11-02T20:29:22;12.70;61.60
30467;DHT22;17258;52.560;13.046;2022-11-02T20:39:23;12.50;61.70
30467;DHT22;17258;52.560;13.046;2022-11-02T20:49:24;12.30;61.70
30467;DHT22;17258;52.560;13.046;2022-11-02T20:59:27;12.20;61.80
30467;DHT22;17258;52.560;13.046;2022-11-02T21:09:27;12.00;61.90
30467;DHT22;17258;52.560;13.046;2022-11-02T21:19:29;12.00;62.00
30467;DHT22;17258;52.560;13.046;2022-11-02T21:29:30;11.80;62.00
30467;DHT22;17258;52.560;13.046;2022-11-02T21:39:34;11.70;62.10
30467;DHT22;17258;52.560;13.046;2022-11-02T21:49:35;11.60;62.20
30467;DHT22;17258;52.560;13.046;2022-11-02T21:59:36;11.40;62.10
30467;DHT22;17258;52.560;13.046;2022-11-02T22:09:36;11.30;62.30
30467;DHT22;17258;52.560;13.046;2022-11-02T22:19:37;11.20;62.20
30467;DHT22;17258;52.560;13.046;2022-11-02T22:29:37;11.10;62.30
30467;DHT22;17258;52.560;13.046;2022-11-02T22:39:38;11.00;62.40
30467;DHT22;17258;52.560;13.046;2022-11-02T22:49:39;10.90;62.40
30467;DHT22;17258;52.560;13.046;2022-11-02T22:59:39;10.80;62.40
30467;DHT22;17258;52.560;13.046;2022-11-02T23:09:40;10.70;62.50
30467;DHT22;17258;52.560;13.046;2022-11-02T23:19:41;10.60;62.50
30467;DHT22;17258;52.560;13.046;2022-11-02T23:29:43;10.40;62.40
30467;DHT22;17258;52.560;13.046;2022-11-02T23:40:03;10.30;62.50
30467;DHT22;17258;52.560;13.046;2022-11-02T23:50:04;10.20;62.50
